Terminal Aerodrome Forecast
Issued by NWS

Current Version | Previous Version | Graphics & Text | Print | Product List | Glossary On
Versions: 1 2 3 4 5 6 7 8 9 10 11 12 13 14 15 16 17 18 19 20 21 22 23 24 25 26 27 28
000
FTUS41 KILN 190500
TAFLUK
TAF
KLUK 190539Z 1906/2006 00000KT 4SM BR SCT040
     FM190800 00000KT 1SM BR FEW001 SCT040
      TEMPO 1909/1912 1/4SM FG VV001
     FM191300 VRB03KT 2SM BR SCT040
     FM191400 24004KT P6SM SCT040
     FM191800 24007KT P6SM BKN040
     FM200300 23006KT P6SM VCTS BKN040CB=

USA.gov is the U.S. government's official web portal to all federal, state and local government web resources and services.